Time;durP1;ratioP1;P1;durP2;ratioP2;P2;SDS_P1;SDS_P2;PMS_P1;PMS_P2;Temp;Humidity;BMP_temperature;BMP_pressure;BME280_temperature;BME280_humidity;BME280_pressure;Samples;Min_cycle;Max_cycle;Signal;HPM_P1;HPM_P2
2023/01/02 00:02:54;;;;;;;4.75;1.38;;;;;;;10.26;100.00;100951.66;6247360;28;20393;-74
2023/01/02 00:05:57;;;;;;;4.32;1.98;;;;;;;10.28;100.00;100955.06;6270012;28;20048;-75
2023/01/02 00:08:58;;;;;;;3.15;1.55;;;;;;;10.30;100.00;100940.06;6270154;28;20491;-75
2023/01/02 00:11:59;;;;;;;7.82;1.95;;;;;;;10.29;100.00;100931.34;6270085;28;20060;-74
2023/01/02 00:15:01;;;;;;;3.53;1.88;;;;;;;10.31;100.00;100924.25;6270060;28;20064;-74
2023/01/02 00:18:03;;;;;;;2.53;1.65;;;;;;;10.32;100.00;100910.19;6270175;28;20053;-75
2023/01/02 00:21:06;;;;;;;2.97;1.77;;;;;;;10.35;100.00;100904.75;6270030;28;20052;-75
2023/01/02 00:24:08;;;;;;;7.63;2.13;;;;;;;10.38;100.00;100907.25;6269872;28;20052;-74
2023/01/02 00:27:10;;;;;;;5.35;1.67;;;;;;;10.39;100.00;100906.31;6269919;28;20056;-74
2023/01/02 00:30:12;;;;;;;6.78;2.22;;;;;;;10.48;100.00;100885.75;6270026;28;20484;-74
2023/01/02 00:33:14;;;;;;;8.30;1.95;;;;;;;10.51;100.00;100898.75;6272363;28;20515;-74
2023/01/02 00:36:17;;;;;;;5.72;1.45;;;;;;;10.55;100.00;100892.41;6274936;28;20409;-74
2023/01/02 00:39:18;;;;;;;7.13;1.52;;;;;;;10.58;100.00;100885.22;6274821;28;20045;-74
2023/01/02 00:42:20;;;;;;;5.15;1.77;;;;;;;10.62;100.00;100891.16;6274300;28;20049;-75
2023/01/02 00:45:21;;;;;;;4.97;1.75;;;;;;;10.65;100.00;100869.97;6274695;28;20052;-74
2023/01/02 00:48:23;;;;;;;3.42;2.03;;;;;;;10.66;100.00;100874.31;6274514;28;20045;-74
2023/01/02 00:51:25;;;;;;;3.40;1.50;;;;;;;10.66;100.00;100869.03;6274546;28;20049;-74
2023/01/02 00:54:26;;;;;;;6.43;1.90;;;;;;;10.74;100.00;100856.38;6274293;28;20063;-74
2023/01/02 00:57:28;;;;;;;2.33;1.40;;;;;;;10.73;100.00;100849.41;6274252;28;20436;-75
2023/01/02 01:00:29;;;;;;;14.82;2.17;;;;;;;10.72;100.00;100850.34;6274168;28;20064;-74
2023/01/02 01:03:31;;;;;;;5.05;1.40;;;;;;;10.73;100.00;100849.41;6274144;28;20389;-74
2023/01/02 01:06:34;;;;;;;7.85;2.35;;;;;;;10.75;100.00;100842.28;6274077;28;20049;-75
2023/01/02 01:09:35;;;;;;;2.45;1.55;;;;;;;10.77;100.00;100842.22;6274093;28;20052;-75
2023/01/02 01:12:37;;;;;;;8.52;1.88;;;;;;;10.81;100.00;100834.09;6273972;28;20059;-75
2023/01/02 01:15:38;;;;;;;5.40;1.83;;;;;;;10.77;100.00;100837.81;6273634;28;20053;-75
2023/01/02 01:18:40;;;;;;;4.70;1.92;;;;;;;10.76;100.00;100846.59;6273847;28;20041;-75
2023/01/02 01:21:42;;;;;;;8.48;2.25;;;;;;;10.75;100.00;100844.06;6273427;28;20136;-74
2023/01/02 01:24:44;;;;;;;6.28;2.13;;;;;;;10.74;100.00;100850.25;6273542;28;20428;-75
2023/01/02 01:27:45;;;;;;;7.07;2.55;;;;;;;10.76;100.00;100845.75;6273692;28;20053;-74
2023/01/02 01:30:46;;;;;;;3.55;1.90;;;;;;;10.73;100.00;100845.94;6273527;28;20049;-74
2023/01/02 01:33:48;;;;;;;4.05;1.98;;;;;;;10.71;100.00;100851.25;6273313;28;20052;-74
2023/01/02 01:36:51;;;;;;;4.03;1.85;;;;;;;10.75;100.00;100842.28;6273837;28;20045;-74
2023/01/02 01:39:52;;;;;;;7.03;2.05;;;;;;;10.72;100.00;100847.72;6273087;28;20056;-75
2023/01/02 01:42:53;;;;;;;3.38;1.73;;;;;;;10.75;100.00;100841.44;6273371;28;20053;-74
2023/01/02 01:45:55;;;;;;;6.05;2.30;;;;;;;10.74;100.00;100843.22;6272294;28;20056;-74
2023/01/02 01:49:02;;;;;;;7.00;2.17;;;;;;;10.75;100.00;100844.91;6273193;28;20099;-74
2023/01/02 01:52:09;;;;;;;3.92;2.10;;;;;;;10.79;100.00;100827.22;6273192;28;20072;-74
2023/01/02 01:55:15;;;;;;;4.75;2.40;;;;;;;10.82;100.00;100841.03;6272892;28;20053;-75
2023/01/02 01:58:20;;;;;;;9.15;2.58;;;;;;;10.80;100.00;100836.78;6273193;28;20041;-75
2023/01/02 02:01:22;;;;;;;5.55;2.47;;;;;;;10.77;100.00;100839.59;6272630;28;20056;-74
2023/01/02 02:04:25;;;;;;;3.25;1.70;;;;;;;10.80;100.00;100823.63;6272897;28;20053;-75
2023/01/02 02:07:28;;;;;;;4.47;2.13;;;;;;;10.88;100.00;100821.47;6272716;28;20139;-75
2023/01/02 02:10:30;;;;;;;4.07;1.60;;;;;;;10.89;100.00;100826.63;6272653;28;20053;-75
2023/01/02 02:13:32;;;;;;;3.45;1.73;;;;;;;10.87;100.00;100815.34;6272582;28;20072;-74
2023/01/02 02:16:42;;;;;;;3.08;1.67;;;;;;;10.84;100.00;100809.41;6272631;28;20068;-75
2023/01/02 02:19:58;;;;;;;;;;;;;;;10.84;100.00;100806.78;6262609;28;20058;-75
2023/01/02 02:23:42;;;;;;;3.95;1.92;;;;;;;10.83;100.00;100808.56;6247708;28;19921;-74
2023/01/02 02:26:57;;;;;;;2.00;1.38;;;;;;;10.81;100.00;100805.19;6247742;28;20061;-74
2023/01/02 02:30:10;;;;;;;3.58;1.52;;;;;;;10.82;100.00;100804.25;6247387;28;20106;-74
2023/01/02 02:33:28;;;;;;;4.93;2.03;;;;;;;10.82;100.00;100787.63;6246054;28;20049;-74
2023/01/02 02:36:36;;;;;;;4.30;2.60;;;;;;;10.77;100.00;100787.03;6247093;28;20692;-75
2023/01/02 02:39:53;;;;;;;7.57;2.13;;;;;;;10.77;100.00;100779.97;6247459;28;20096;-74
2023/01/02 02:43:01;;;;;;;3.88;2.47;;;;;;;10.76;100.00;100766.91;6246881;28;20056;-75
2023/01/02 02:46:12;;;;;;;2.25;1.50;;;;;;;10.73;100.00;100775.81;6247066;28;20056;-75
2023/01/02 02:49:21;;;;;;;5.43;1.70;;;;;;;10.78;100.00;100775.56;6247196;28;20111;-74
2023/01/02 02:52:27;;;;;;;8.23;2.13;;;;;;;10.78;100.00;100780.81;6246937;28;20049;-74
2023/01/02 02:55:32;;;;;;;15.90;2.65;;;;;;;10.83;100.00;100778.78;6246682;28;20425;-74
2023/01/02 02:58:35;;;;;;;3.15;1.80;;;;;;;10.81;100.00;100767.50;6246824;28;20650;-74
2023/01/02 03:01:38;;;;;;;4.93;1.70;;;;;;;10.85;100.00;100763.78;6246415;28;20088;-74
2023/01/02 03:04:39;;;;;;;5.90;2.25;;;;;;;10.85;100.00;100756.72;6246680;28;20045;-75
2023/01/02 03:07:47;;;;;;;8.52;2.25;;;;;;;10.83;100.00;100752.50;6246485;28;20053;-74
2023/01/02 03:10:52;;;;;;;5.15;1.95;;;;;;;10.88;100.00;100756.56;6246685;28;20045;-74
2023/01/02 03:14:02;;;;;;;3.50;1.52;;;;;;;10.92;100.00;100760.75;6246205;28;20057;-75
2023/01/02 03:17:11;;;;;;;2.78;1.70;;;;;;;10.93;100.00;100753.69;6246522;28;20484;-74
2023/01/02 03:20:15;;;;;;;4.50;1.60;;;;;;;11.00;100.00;100751.59;6246013;28;20057;-75
2023/01/02 03:23:21;;;;;;;4.97;1.98;;;;;;;11.01;100.00;100753.28;6246159;28;20050;-74
2023/01/02 03:26:27;;;;;;;4.97;1.75;;;;;;;11.04;100.00;100769.75;6246027;28;20512;-74
2023/01/02 03:29:34;;;;;;;6.88;1.63;;;;;;;11.09;100.00;100765.09;6246014;28;20528;-74
2023/01/02 03:32:40;;;;;;;7.72;2.03;;;;;;;11.11;100.00;100767.63;6245754;28;20057;-77
2023/01/02 03:35:45;;;;;;;6.47;1.90;;;;;;;11.13;100.00;100768.41;6246195;28;20056;-75
2023/01/02 03:38:54;;;;;;;5.88;1.50;;;;;;;11.14;100.00;100770.09;6245910;28;20045;-74
2023/01/02 03:42:04;;;;;;;5.90;1.98;;;;;;;11.25;100.00;100764.22;6245871;28;20060;-75
2023/01/02 03:45:09;;;;;;;5.75;2.22;;;;;;;11.29;100.00;100769.22;6245610;28;20412;-74
2023/01/02 03:48:17;;;;;;;6.88;1.60;;;;;;;11.28;100.00;100774.59;6245917;28;20049;-75
2023/01/02 03:51:19;;;;;;;6.05;1.95;;;;;;;11.30;100.00;100773.53;6245583;28;20053;-75
2023/01/02 03:54:21;;;;;;;4.40;1.83;;;;;;;11.32;100.00;100771.69;6245804;28;20060;-74
2023/01/02 03:57:33;;;;;;;6.82;1.63;;;;;;;11.38;100.00;100771.34;6244650;28;20060;-75
2023/01/02 04:00:40;;;;;;;7.43;1.75;;;;;;;11.54;100.00;100778.38;6245537;28;20045;-74
2023/01/02 04:03:47;;;;;;;4.97;1.83;;;;;;;11.63;100.00;100770.81;6245578;28;20053;-75
2023/01/02 04:06:51;;;;;;;5.75;2.15;;;;;;;11.74;100.00;100761.44;6245079;28;20049;-74
2023/01/02 04:09:53;;;;;;;8.20;2.13;;;;;;;11.86;100.00;100764.25;6245553;28;20050;-74
2023/01/02 04:12:59;;;;;;;6.07;2.20;;;;;;;11.84;100.00;100766.09;6245651;28;20463;-74
2023/01/02 04:16:03;;;;;;;3.33;1.77;;;;;;;11.83;100.00;100763.56;6245353;28;20073;-74
2023/01/02 04:19:10;;;;;;;4.18;1.60;;;;;;;11.81;100.00;100760.13;6246045;28;20049;-74
2023/01/02 04:22:17;;;;;;;4.90;1.77;;;;;;;11.72;100.00;100774.69;6245167;28;20128;-74
2023/01/02 04:25:19;;;;;;;6.25;1.67;;;;;;;11.68;100.00;100762.66;6245371;28;20053;-74
2023/01/02 04:28:25;;;;;;;5.13;1.95;;;;;;;11.64;100.00;100771.66;6245191;28;20053;-74
2023/01/02 04:31:32;;;;;;;10.95;2.58;;;;;;;11.60;100.00;100778.03;6245227;28;20104;-74
2023/01/02 04:34:38;;;;;;;3.08;1.50;;;;;;;11.58;100.00;100769.34;6245103;28;20045;-74
2023/01/02 04:37:42;;;;;;;6.70;2.08;;;;;;;11.54;100.00;100776.59;6245436;28;20520;-74
2023/01/02 04:40:43;;;;;;;4.38;1.63;;;;;;;11.50;100.00;100782.13;6244955;28;20056;-75
2023/01/02 04:43:44;;;;;;;5.40;1.70;;;;;;;11.54;100.00;100775.75;6244825;28;20049;-74
2023/01/02 04:46:46;;;;;;;8.25;1.83;;;;;;;11.51;100.00;100779.41;6245204;28;20053;-75
2023/01/02 04:49:48;;;;;;;4.82;1.63;;;;;;;11.47;100.00;100772.59;6245109;28;20056;-75
2023/01/02 04:52:50;;;;;;;6.47;2.03;;;;;;;11.45;100.00;100771.00;6245724;28;20071;-75
2023/01/02 04:55:55;;;;;;;4.28;1.83;;;;;;;11.41;100.00;100776.44;6246088;28;20049;-74
2023/01/02 04:58:56;;;;;;;4.50;1.80;;;;;;;11.41;100.00;100775.59;6246239;28;20050;-74
2023/01/02 05:01:57;;;;;;;8.80;2.00;;;;;;;11.37;100.00;100782.81;6246155;28;20072;-74
2023/01/02 05:05:00;;;;;;;10.43;2.35;;;;;;;11.41;100.00;100778.22;6245998;28;20046;-75
2023/01/02 05:08:01;;;;;;;6.20;1.92;;;;;;;11.43;100.00;100781.59;6245994;28;20489;-74
2023/01/02 05:11:05;;;;;;;4.78;2.30;;;;;;;11.49;100.00;100777.78;6245889;28;20056;-74
2023/01/02 05:14:07;;;;;;;6.35;2.00;;;;;;;11.48;100.00;100778.72;6245597;28;20049;-75
2023/01/02 05:17:08;;;;;;;8.80;1.80;;;;;;;11.43;100.00;100769.28;6245965;28;20501;-74
2023/01/02 05:20:13;;;;;;;5.28;2.10;;;;;;;11.43;100.00;100768.44;6248012;28;20053;-74
2023/01/02 05:26:33;;;;;;;6.50;1.70;;;;;;;11.50;100.00;100764.56;6249973;28;20061;-74
2023/01/02 05:29:35;;;;;;;13.55;1.88;;;;;;;11.53;100.00;100769.63;6265237;28;20053;-75
2023/01/02 05:32:36;;;;;;;5.60;1.80;;;;;;;11.57;100.00;100765.88;6269958;28;20045;-75
2023/01/02 05:35:38;;;;;;;3.30;1.90;;;;;;;11.66;100.00;100767.13;6274418;28;20117;-74
2023/01/02 05:38:40;;;;;;;4.30;2.08;;;;;;;11.72;100.00;100765.94;6274939;28;20049;-74
2023/01/02 05:41:42;;;;;;;6.55;1.95;;;;;;;11.75;100.00;100763.97;6267514;28;20049;-74
2023/01/02 05:44:43;;;;;;;7.95;1.63;;;;;;;11.77;100.00;100774.44;6274601;28;20059;-74
2023/01/02 05:47:44;;;;;;;7.57;1.42;;;;;;;11.77;100.00;100771.81;6274397;28;20060;-74
2023/01/02 05:50:47;;;;;;;3.35;1.50;;;;;;;11.79;100.00;100772.53;6271828;28;20444;-75
2023/01/02 05:53:49;;;;;;;2.53;1.15;;;;;;;11.84;100.00;100771.38;6267151;28;20055;-74
2023/01/02 05:56:51;;;;;;;5.40;1.30;;;;;;;11.80;100.00;100782.97;6274781;28;20051;-74
2023/01/02 05:59:52;;;;;;;3.72;1.75;;;;;;;11.80;100.00;100782.13;6274040;28;20052;-74
2023/01/02 06:02:53;;;;;;;8.02;2.97;;;;;;;11.75;100.00;100786.81;6274202;28;20053;-74
2023/01/02 06:05:56;;;;;;;3.15;1.80;;;;;;;11.72;100.00;100784.34;6274202;28;20049;-74
2023/01/02 06:08:58;;;;;;;5.63;1.60;;;;;;;11.87;100.00;100788.78;6273803;28;20049;-74
2023/01/02 06:11:59;;;;;;;5.07;1.45;;;;;;;11.92;100.00;100787.56;6273397;28;20045;-74
2023/01/02 06:15:00;;;;;;;4.00;1.77;;;;;;;11.90;100.00;100793.88;6273503;28;20420;-74
2023/01/02 06:18:01;;;;;;;8.73;2.05;;;;;;;11.98;100.00;100802.16;6274090;28;20056;-74
2023/01/02 06:21:06;;;;;;;8.27;2.35;;;;;;;12.04;100.00;100793.09;6273407;28;20052;-74
2023/01/02 06:24:07;;;;;;;6.30;1.77;;;;;;;12.02;100.00;100801.06;6273458;28;20052;-74
2023/01/02 06:27:09;;;;;;;3.50;1.52;;;;;;;11.96;100.00;100796.16;6273627;28;20049;-74
2023/01/02 06:30:11;;;;;;;8.50;1.50;;;;;;;11.92;100.00;100813.06;6272867;28;20049;-74
2023/01/02 06:33:12;;;;;;;7.75;1.58;;;;;;;11.92;100.00;100811.28;6273645;28;20512;-74
2023/01/02 06:36:16;;;;;;;5.35;1.60;;;;;;;11.91;100.00;100801.69;6273264;28;20057;-75
2023/01/02 06:39:18;;;;;;;4.53;1.63;;;;;;;11.93;100.00;100796.31;6273284;28;20045;-74
2023/01/02 06:42:19;;;;;;;9.70;1.80;;;;;;;11.88;100.00;100788.69;6272821;28;20068;-74
2023/01/02 06:45:22;;;;;;;3.95;1.60;;;;;;;11.89;100.00;100797.44;6273090;28;20052;-74
2023/01/02 06:48:23;;;;;;;5.07;2.00;;;;;;;11.92;100.00;100787.56;6273048;28;20079;-74
2023/01/02 06:51:26;;;;;;;2.40;1.60;;;;;;;11.89;100.00;100792.16;6272812;28;20053;-74
2023/01/02 06:54:27;;;;;;;4.38;1.75;;;;;;;11.94;100.00;100790.09;6272818;28;20053;-74
2023/01/02 06:57:30;;;;;;;11.00;2.10;;;;;;;11.86;100.00;100785.31;6272891;28;20053;-74
2023/01/02 07:00:32;;;;;;;6.72;1.90;;;;;;;11.77;100.00;100791.06;6272565;28;20049;-74
2023/01/02 07:03:33;;;;;;;2.00;1.58;;;;;;;11.73;100.00;100786.06;6272745;28;20057;-74
2023/01/02 07:06:36;;;;;;;4.82;2.03;;;;;;;11.69;100.00;100795.94;6272254;28;20431;-74
2023/01/02 07:09:37;;;;;;;4.47;1.75;;;;;;;11.62;100.00;100795.41;6272327;28;20048;-74
2023/01/02 07:12:39;;;;;;;4.10;1.75;;;;;;;11.65;100.00;100799.66;6272378;28;20049;-74
2023/01/02 07:15:40;;;;;;;3.05;1.65;;;;;;;11.66;100.00;100804.00;6272313;28;20056;-74
2023/01/02 07:18:41;;;;;;;3.92;2.17;;;;;;;11.68;100.00;100792.44;6272564;28;20056;-74
2023/01/02 07:21:44;;;;;;;4.30;2.45;;;;;;;11.69;100.00;100802.03;6272132;28;20768;-74
2023/01/02 07:24:45;;;;;;;7.40;1.70;;;;;;;11.75;100.00;100803.47;6272008;28;20068;-74
2023/01/02 07:27:47;;;;;;;4.60;1.60;;;;;;;11.78;100.00;100799.81;6272142;28;20053;-74
2023/01/02 07:30:49;;;;;;;5.82;1.70;;;;;;;11.91;100.00;100808.75;6272042;28;20041;-74
2023/01/02 07:33:50;;;;;;;7.80;1.75;;;;;;;11.97;100.00;100797.00;6271755;28;20059;-74
2023/01/02 07:36:52;;;;;;;3.63;1.60;;;;;;;12.01;100.00;100807.25;6252499;28;20509;-74
2023/01/02 07:39:54;;;;;;;5.10;1.67;;;;;;;12.09;100.00;100812.09;6247023;28;20052;-74
2023/01/02 07:42:55;;;;;;;4.50;1.48;;;;;;;12.10;100.00;100814.63;6246202;28;20064;-74
2023/01/02 07:46:02;;;;;;;4.15;1.40;;;;;;;12.16;100.00;100808.16;6247025;28;20049;-74
2023/01/02 07:49:04;;;;;;;4.07;1.63;;;;;;;12.27;100.00;100821.56;6246914;28;20045;-75
2023/01/02 07:52:10;;;;;;;4.13;1.67;;;;;;;12.38;100.00;100820.91;6247238;28;20049;-74
2023/01/02 07:55:11;;;;;;;3.58;1.50;;;;;;;12.42;100.00;100817.16;6246624;28;20054;-74
2023/01/02 07:58:13;;;;;;;4.97;1.48;;;;;;;12.40;100.00;100827.78;6251250;28;20420;-74
2023/01/02 08:01:14;;;;;;;3.85;1.33;;;;;;;12.50;100.00;100828.09;6259382;28;20050;-74
2023/01/02 08:04:15;;;;;;;2.88;1.75;;;;;;;12.54;100.00;100820.84;6257667;28;20519;-74
2023/01/02 08:07:18;;;;;;;7.30;1.50;;;;;;;12.54;100.00;100832.22;6249364;28;20053;-74
2023/01/02 08:10:20;;;;;;;1.48;1.00;;;;;;;12.46;100.00;100833.63;6246541;28;20056;-74
2023/01/02 08:13:21;;;;;;;3.85;1.48;;;;;;;12.51;100.00;100826.28;6246744;28;20137;-74
2023/01/02 08:16:23;;;;;;;2.17;1.10;;;;;;;12.54;100.00;100829.59;6246347;28;20079;-74
2023/01/02 08:19:24;;;;;;;3.72;1.42;;;;;;;12.64;100.00;100833.38;6246192;28;20046;-74
2023/01/02 08:22:27;;;;;;;4.20;1.15;;;;;;;12.59;100.00;100838.06;6246152;28;20050;-74
2023/01/02 08:25:28;;;;;;;1.77;1.10;;;;;;;12.56;100.00;100840.88;6246675;28;20045;-74
2023/01/02 08:28:30;;;;;;;2.40;1.13;;;;;;;12.52;100.00;100849.06;6246356;28;20056;-75
2023/01/02 08:31:32;;;;;;;2.85;1.42;;;;;;;12.66;100.00;100854.34;6246299;28;20057;-74
2023/01/02 08:34:34;;;;;;;3.30;1.10;;;;;;;12.75;100.00;100852.97;6253667;28;20065;-74
2023/01/02 08:37:36;;;;;;;4.45;0.90;;;;;;;12.86;100.00;100859.28;6271131;28;20049;-74
2023/01/02 08:40:38;;;;;;;1.42;1.02;;;;;;;12.80;100.00;100871.97;6270775;28;20055;-74
2023/01/02 08:43:40;;;;;;;5.57;2.28;;;;;;;12.76;100.00;100859.91;6270760;28;20060;-74
2023/01/02 08:46:41;;;;;;;6.43;2.08;;;;;;;12.68;100.00;100865.69;6270979;28;20056;-74
2023/01/02 08:49:42;;;;;;;1.92;1.00;;;;;;;12.66;100.00;100868.38;6270782;28;20056;-74
2023/01/02 08:52:45;;;;;;;4.38;1.50;;;;;;;12.66;100.00;100875.44;6265313;28;20041;-74
2023/01/02 08:55:46;;;;;;;3.63;1.20;;;;;;;12.65;100.00;100882.50;6275327;28;20432;-74
2023/01/02 08:58:52;;;;;;;2.10;1.00;;;;;;;12.66;100.00;100889.47;6275193;28;20049;-74
2023/01/02 09:01:54;;;;;;;4.63;1.30;;;;;;;12.70;100.00;100874.34;6272427;28;20060;-75
2023/01/02 09:04:55;;;;;;;6.07;1.48;;;;;;;12.67;100.00;100877.13;6269395;28;20053;-74
2023/01/02 09:07:58;;;;;;;6.38;1.30;;;;;;;12.70;100.00;100888.34;6275265;28;20061;-74
2023/01/02 09:11:00;;;;;;;2.85;1.55;;;;;;;12.74;100.00;100875.00;6275371;28;20045;-74
2023/01/02 09:14:02;;;;;;;3.90;1.40;;;;;;;12.74;100.00;100888.19;6275146;28;20527;-74
2023/01/02 09:17:03;;;;;;;5.75;1.25;;;;;;;12.81;100.00;100894.78;6275433;28;20053;-74
2023/01/02 09:20:05;;;;;;;1.30;1.20;;;;;;;12.84;100.00;100884.88;6274974;28;20056;-74
2023/01/02 09:23:08;;;;;;;3.22;1.42;;;;;;;12.88;100.00;100896.09;6275212;28;20049;-74
2023/01/02 09:26:11;;;;;;;1.80;1.10;;;;;;;12.89;100.00;100895.16;6271011;28;20053;-74
2023/01/02 09:29:14;;;;;;;4.97;1.20;;;;;;;12.79;100.00;100897.50;6268674;28;20056;-74
2023/01/02 09:32:15;;;;;;;1.95;0.88;;;;;;;12.79;100.00;100904.56;6271637;28;20052;-74
2023/01/02 09:35:16;;;;;;;2.78;1.13;;;;;;;12.83;100.00;100901.66;6268697;28;20056;-74
2023/01/02 09:38:19;;;;;;;3.55;1.30;;;;;;;12.87;100.00;100903.19;6272923;28;21477;-74
2023/01/02 09:41:28;;;;;;;3.83;0.98;;;;;;;12.87;100.00;100913.72;6267163;28;20057;-75
2023/01/02 09:44:36;;;;;;;3.03;1.08;;;;;;;12.87;100.00;100931.34;6267798;28;20060;-76
2023/01/02 09:47:39;;;;;;;7.97;1.23;;;;;;;12.85;100.00;100926.19;6273837;28;20048;-75
2023/01/02 09:50:41;;;;;;;2.08;1.27;;;;;;;12.98;100.00;100935.97;6249507;28;20049;-74
2023/01/02 09:53:43;;;;;;;1.55;1.13;;;;;;;12.87;100.00;100932.19;6249123;28;20084;-75
2023/01/02 09:56:49;;;;;;;2.10;1.17;;;;;;;12.82;100.00;100933.41;6247163;28;20049;-74
2023/01/02 09:59:56;;;;;;;1.00;0.90;;;;;;;12.79;100.00;100938.88;6248844;28;20429;-73
2023/01/02 10:03:06;;;;;;;1.65;1.27;;;;;;;12.76;100.00;100934.59;6249360;28;20046;-75
2023/01/02 10:06:13;;;;;;;4.78;1.30;;;;;;;12.74;100.00;100954.13;6248378;28;20513;-72
2023/01/02 10:09:25;;;;;;;3.33;1.45;;;;;;;12.68;100.00;100944.78;6249514;28;20045;-74
2023/01/02 10:12:34;;;;;;;1.92;1.52;;;;;;;12.63;100.00;100952.13;6248984;28;20045;-74
2023/01/02 10:15:37;;;;;;;;;;;;;;;12.61;100.00;100953.97;6249670;28;20053;-74
2023/01/02 10:18:43;;;;;;;1.88;1.20;;;;;;;12.59;100.00;100955.88;6248259;28;20360;-74
2023/01/02 10:21:47;;;;;;;1.83;1.27;;;;;;;12.59;100.00;100959.34;6247982;28;20042;-74
2023/01/02 10:24:57;;;;;;;1.48;1.33;;;;;;;12.58;100.00;100960.28;6257102;28;20056;-75
2023/01/02 10:28:07;;;;;;;2.90;1.33;;;;;;;12.48;100.00;100963.53;6268647;28;20049;-74
2023/01/02 10:31:14;;;;;;;3.55;1.65;;;;;;;12.35;100.00;101003.78;6270322;28;20048;-74
2023/01/02 10:34:17;;;;;;;2.55;1.52;;;;;;;12.16;100.00;100988.13;6273119;28;20056;-75
2023/01/02 10:37:19;;;;;;;2.92;1.65;;;;;;;12.05;100.00;100989.69;6273137;28;20166;-75
2023/01/02 10:40:22;;;;;;;4.07;2.03;;;;;;;12.04;100.00;100988.00;6270975;28;20131;-75
2023/01/02 10:43:24;;;;;;;3.00;1.48;;;;;;;11.99;100.00;100993.53;6272736;28;20206;-74
2023/01/02 10:46:28;;;;;;;4.70;1.60;;;;;;;12.01;100.00;101003.97;6272724;28;20492;-74
2023/01/02 10:49:33;;;;;;;4.90;1.77;;;;;;;11.95;100.00;101006.94;6261811;28;20059;-75
2023/01/02 10:52:40;;;;;;;6.20;1.70;;;;;;;12.00;100.00;100989.09;6272689;28;20059;-74
2023/01/02 10:55:44;;;;;;;2.85;1.85;;;;;;;11.93;100.00;100999.97;6272946;28;20049;-75
2023/01/02 10:58:47;;;;;;;1.63;1.50;;;;;;;11.62;100.00;101003.38;6272602;28;20051;-77
2023/01/02 11:01:50;;;;;;;2.80;1.23;;;;;;;11.35;100.00;101003.03;6272679;28;20489;-77
2023/01/02 11:04:51;;;;;;;1.20;1.10;;;;;;;11.27;100.00;101025.44;6265595;28;20041;-77
2023/01/02 11:07:54;;;;;;;3.38;1.40;;;;;;;11.19;100.00;101028.47;6262579;28;20423;-76
2023/01/02 11:11:00;;;;;;;1.17;1.08;;;;;;;11.14;100.00;101033.13;6267299;28;20041;-76
2023/01/02 11:14:06;;;;;;;1.73;1.27;;;;;;;11.15;100.00;101037.44;6272609;28;20527;-77
2023/01/02 11:17:13;;;;;;;1.25;1.10;;;;;;;11.16;100.00;101053.13;6272520;28;20454;-76
2023/01/02 11:20:27;;;;;;;1.80;1.17;;;;;;;11.11;100.00;101065.66;6271946;28;20041;-76
2023/01/02 11:23:31;;;;;;;0.93;0.88;;;;;;;11.01;100.00;101087.25;6272062;28;20202;-75
2023/01/02 11:26:35;;;;;;;3.13;0.77;;;;;;;10.85;100.00;101105.56;6271994;28;20423;-76
2023/01/02 11:29:36;;;;;;;0.63;0.63;;;;;;;10.79;100.00;101113.75;6271918;28;20147;-75
2023/01/02 11:32:40;;;;;;;1.55;0.70;;;;;;;10.71;100.00;101111.47;6267784;28;20045;-75
2023/01/02 11:35:45;;;;;;;1.27;0.50;;;;;;;10.60;100.00;101122.50;6263892;28;20059;-75
2023/01/02 11:38:49;;;;;;;0.30;0.30;;;;;;;10.53;100.00;101130.75;6271646;28;20056;-75
2023/01/02 11:45:19;;;;;;;0.30;0.30;;;;;;;10.39;100.00;101129.63;6271686;28;20049;-75
2023/01/02 11:48:24;;;;;;;0.20;0.20;;;;;;;10.46;100.00;101129.34;6265231;28;20051;-75
2023/01/02 11:51:28;;;;;;;1.00;0.25;;;;;;;10.36;100.00;101144.69;6261954;28;20068;-74
2023/01/02 11:54:37;;;;;;;0.30;0.30;;;;;;;10.37;100.00;101159.53;6268136;28;20497;-74
2023/01/02 11:57:47;;;;;;;0.20;0.20;;;;;;;10.31;100.00;101159.78;6271417;28;20415;-74
2023/01/02 12:00:53;;;;;;;0.20;0.20;;;;;;;10.30;100.00;101166.81;6271325;28;20053;-75
2023/01/02 12:03:55;;;;;;;0.55;0.20;;;;;;;10.19;100.00;101176.09;6271534;28;20492;-74
2023/01/02 12:07:08;;;;;;;0.20;0.20;;;;;;;10.23;100.00;101168.00;6271507;28;20424;-74
2023/01/02 12:10:22;;;;;;;0.28;0.22;;;;;;;10.21;100.00;101167.22;6271358;28;20055;-74
2023/01/02 12:13:42;;;;;;;0.20;0.20;;;;;;;10.15;100.00;101181.47;6271215;28;20451;-74
2023/01/02 12:16:50;;;;;;;0.25;0.25;;;;;;;10.15;100.00;101170.13;6271397;28;20056;-74
2023/01/02 12:20:11;;;;;;;0.57;0.40;;;;;;;10.13;100.00;101185.94;6264056;28;20045;-76
2023/01/02 12:23:30;;;;;;;0.52;0.28;;;;;;;10.15;100.00;101196.38;6253040;28;20520;-75
2023/01/02 12:26:39;;;;;;;0.10;0.10;;;;;;;10.10;100.00;101206.25;6270823;28;20045;-74
2023/01/02 12:30:07;;;;;;;0.35;0.35;;;;;;;10.06;100.00;101208.13;6264799;28;20099;-74
2023/01/02 12:33:29;;;;;;;1.50;0.60;;;;;;;10.09;100.00;101205.38;6274202;28;20063;-74
2023/01/02 12:36:43;;;;;;;0.32;0.30;;;;;;;10.00;100.00;101200.53;6272997;28;20049;-74
2023/01/02 12:40:05;;;;;;;0.38;0.38;;;;;;;10.01;100.00;101218.00;6268377;28;20044;-74
2023/01/02 12:43:35;;;;;;;11.73;3.92;;;;;;;9.97;100.00;101233.94;6273595;28;20493;-74
2023/01/02 12:46:52;;;;;;;1.40;0.40;;;;;;;10.00;100.00;101225.94;6274989;28;20102;-74
2023/01/02 12:50:17;;;;;;;2.08;0.47;;;;;;;10.02;100.00;101247.72;6264289;28;20045;-74
2023/01/02 12:53:30;;;;;;;0.47;0.38;;;;;;;9.99;100.00;101239.97;6272920;28;20051;-74
2023/01/02 12:56:40;;;;;;;0.40;0.40;;;;;;;9.91;100.00;101249.03;6275508;28;20045;-74
2023/01/02 13:00:00;;;;;;;0.70;0.50;;;;;;;9.93;100.00;101251.59;6275616;28;20136;-74
2023/01/02 13:03:23;;;;;;;0.60;0.40;;;;;;;9.85;100.00;101253.69;6270622;28;20489;-74
2023/01/02 13:06:27;;;;;;;1.38;0.40;;;;;;;9.94;100.00;101257.69;6253002;28;20076;-74
2023/01/02 13:09:35;;;;;;;0.47;0.30;;;;;;;9.90;100.00;101254.34;6267136;28;20412;-74
2023/01/02 13:12:37;;;;;;;0.55;0.43;;;;;;;9.88;100.00;101257.03;6266743;28;20046;-74
2023/01/02 13:15:42;;;;;;;0.35;0.20;;;;;;;9.83;100.00;101255.53;6274578;28;20531;-74
2023/01/02 13:18:54;;;;;;;0.60;0.50;;;;;;;9.84;100.00;101263.34;6267266;28;20128;-74
2023/01/02 13:22:02;;;;;;;0.57;0.40;;;;;;;9.84;100.00;101265.09;6274685;28;20421;-74
2023/01/02 13:25:05;;;;;;;1.15;0.38;;;;;;;9.86;100.00;101273.78;6274833;28;20053;-74
2023/01/02 13:28:11;;;;;;;0.32;0.32;;;;;;;9.80;100.00;101272.25;6252706;28;20056;-74
2023/01/02 13:31:13;;;;;;;0.60;0.25;;;;;;;9.84;100.00;101286.09;6262067;28;20052;-74
2023/01/02 13:34:21;;;;;;;0.40;0.40;;;;;;;9.86;100.00;101286.91;6272483;28;20048;-74
2023/01/02 13:37:25;;;;;;;1.10;0.30;;;;;;;9.81;100.00;101287.09;6274816;28;20497;-74
2023/01/02 13:40:32;;;;;;;0.30;0.30;;;;;;;9.76;100.00;101298.69;6271999;28;20291;-74
2023/01/02 13:43:34;;;;;;;0.40;0.40;;;;;;;9.78;100.00;101307.38;6258865;28;20045;-74
2023/01/02 13:46:39;;;;;;;0.40;0.40;;;;;;;9.77;100.00;101309.16;6266333;28;20483;-74
2023/01/02 13:49:41;;;;;;;0.45;0.40;;;;;;;9.74;100.00;101325.00;6257666;28;20045;-74
2023/01/02 13:52:59;;;;;;;0.75;0.47;;;;;;;9.75;100.00;101303.09;6273947;28;20041;-74
2023/01/02 13:56:07;;;;;;;0.60;0.45;;;;;;;9.77;100.00;101303.03;6274163;28;20053;-74
2023/01/02 13:59:26;;;;;;;0.57;0.40;;;;;;;9.71;100.00;101309.38;6251924;28;20053;-74
2023/01/02 14:02:28;;;;;;;0.73;0.52;;;;;;;9.76;100.00;101327.56;6272256;28;20044;-75
2023/01/02 14:06:02;;;;;;;0.57;0.45;;;;;;;9.70;100.00;101339.16;6273858;28;20044;-74
2023/01/02 14:09:10;;;;;;;0.82;0.52;;;;;;;9.71;100.00;101335.63;6267061;28;20057;-74
2023/01/02 14:12:12;;;;;;;2.28;1.52;;;;;;;9.73;100.00;101344.31;6273429;28;20057;-74
2023/01/02 14:15:18;;;;;;;0.47;0.47;;;;;;;9.71;100.00;101353.16;6273852;28;20049;-74
2023/01/02 14:18:27;;;;;;;0.88;0.73;;;;;;;9.73;100.00;101360.06;6273592;28;20053;-74
2023/01/02 14:21:35;;;;;;;0.90;0.80;;;;;;;9.69;100.00;101363.72;6273742;28;20516;-74